createdAt,value
2019-06-01T00:01:07.594Z,88.60
2019-06-01T00:03:38.119Z,88.40
2019-06-01T00:06:07.714Z,88.60
2019-06-01T00:08:37.149Z,89.10
2019-06-01T00:11:06.610Z,88.90
2019-06-01T00:13:37.598Z,88.80
2019-06-01T00:16:07.055Z,89.00
2019-06-01T00:18:36.504Z,89.10
2019-06-01T00:21:06.834Z,89.10
2019-06-01T00:23:36.287Z,89.40
2019-06-01T00:26:05.803Z,89.60
2019-06-01T00:28:35.236Z,89.70
2019-06-01T00:31:04.705Z,89.90
2019-06-01T00:33:34.219Z,90.10
2019-06-01T00:36:03.654Z,90.20
2019-06-01T00:38:33.101Z,90.40
2019-06-01T00:41:02.566Z,90.40
2019-06-01T00:43:32.083Z,90.50
2019-06-01T00:46:01.549Z,90.40
2019-06-01T00:48:31.101Z,90.40
2019-06-01T00:51:01.222Z,90.40
2019-06-01T00:53:30.659Z,90.60
2019-06-01T00:56:00.091Z,90.70
2019-06-01T00:58:29.562Z,90.70
2019-06-01T01:00:58.997Z,90.70
2019-06-01T01:03:28.445Z,90.40
2019-06-01T01:05:57.902Z,90.50
2019-06-01T01:08:27.367Z,90.50
2019-06-01T01:11:02.474Z,90.50
2019-06-01T01:13:31.929Z,90.50
2019-06-01T01:16:01.705Z,90.30
2019-06-01T01:18:31.735Z,90.50
2019-06-01T01:21:01.267Z,90.50
2019-06-01T01:23:30.741Z,90.60
2019-06-01T01:26:00.178Z,90.50
2019-06-01T01:28:29.623Z,90.60
2019-06-01T01:31:12.368Z,90.70
2019-06-01T01:33:32.802Z,90.60
2019-06-01T01:36:02.267Z,90.60
2019-06-01T01:38:31.703Z,90.50
2019-06-01T01:41:01.154Z,90.70
2019-06-01T01:43:30.616Z,90.80
2019-06-01T01:46:00.052Z,90.70
2019-06-01T01:48:29.515Z,90.90
2019-06-01T01:50:58.972Z,90.90
2019-06-01T01:53:28.449Z,90.90
2019-06-01T01:55:58.847Z,91.00
2019-06-01T01:58:28.476Z,90.90
2019-06-01T02:00:58.547Z,90.90
2019-06-01T02:03:29.474Z,90.80
2019-06-01T02:05:59.176Z,91.00
2019-06-01T02:08:28.739Z,91.10
2019-06-01T02:11:02.510Z,91.30
2019-06-01T02:13:32.118Z,91.50
2019-06-01T02:16:02.601Z,91.40
2019-06-01T02:18:32.198Z,91.50
2019-06-01T02:21:02.701Z,91.60
2019-06-01T02:23:32.429Z,91.50
2019-06-01T02:26:03.177Z,91.30
2019-06-01T02:28:32.858Z,91.40
2019-06-01T02:31:03.903Z,91.40
2019-06-01T02:33:33.640Z,91.50
2019-06-01T02:36:05.040Z,91.80
2019-06-01T02:38:34.274Z,91.80
2019-06-01T02:41:05.508Z,91.60
2019-06-01T02:43:34.879Z,91.60
2019-06-01T02:46:05.496Z,91.40
2019-06-01T02:48:35.586Z,91.50
2019-06-01T02:51:05.549Z,91.70
2019-06-01T02:53:35.019Z,91.80
2019-06-01T02:56:04.462Z,91.90
2019-06-01T02:58:33.896Z,91.90
2019-06-01T03:01:08.069Z,91.80
2019-06-01T03:03:37.611Z,92.20
2019-06-01T03:06:08.678Z,92.10
2019-06-01T03:08:38.862Z,92.20
2019-06-01T03:11:10.026Z,92.10
2019-06-01T03:13:42.717Z,92.20
2019-06-01T03:16:14.085Z,92.40
2019-06-01T03:18:45.333Z,92.40
2019-06-01T03:21:18.922Z,92.40
2019-06-01T03:23:50.736Z,92.50
2019-06-01T03:26:21.877Z,92.30
2019-06-01T03:28:53.551Z,92.40
2019-06-01T03:31:23.015Z,92.20
2019-06-01T03:33:52.480Z,92.10
2019-06-01T03:36:22.061Z,92.40
2019-06-01T03:38:51.608Z,92.30
2019-06-01T03:41:21.382Z,92.40
2019-06-01T03:43:50.828Z,92.50
2019-06-01T03:46:20.272Z,92.50
2019-06-01T03:48:49.895Z,92.50
2019-06-01T03:51:19.336Z,92.40
2019-06-01T03:53:48.778Z,92.40
2019-06-01T03:56:18.220Z,92.30
2019-06-01T03:58:47.688Z,92.50
2019-06-01T04:01:17.122Z,92.60
2019-06-01T04:03:46.609Z,92.70
2019-06-01T04:06:16.065Z,92.70
2019-06-01T04:08:45.527Z,92.70
2019-06-01T04:11:14.993Z,92.80
2019-06-01T04:13:44.450Z,92.70
2019-06-01T04:16:13.921Z,92.70
2019-06-01T04:18:43.435Z,92.60
2019-06-01T04:21:12.909Z,92.50
2019-06-01T04:23:42.366Z,92.50
2019-06-01T04:26:12.316Z,92.50
2019-06-01T04:28:41.866Z,92.40
2019-06-01T04:31:12.722Z,92.30
2019-06-01T04:33:42.282Z,92.40
2019-06-01T04:36:11.738Z,92.40
2019-06-01T04:38:41.196Z,92.80
2019-06-01T04:41:11.973Z,92.70
2019-06-01T04:43:41.562Z,92.80
2019-06-01T04:46:12.245Z,92.60
2019-06-01T04:48:41.955Z,92.50
2019-06-01T04:51:12.143Z,92.20
2019-06-01T04:53:42.748Z,92.10
2019-06-01T04:56:13.093Z,91.80
2019-06-01T04:58:42.703Z,91.70
2019-06-01T05:01:13.046Z,91.70
2019-06-01T05:03:42.597Z,91.40
2019-06-01T05:06:13.359Z,91.40
2019-06-01T05:08:42.961Z,91.40
2019-06-01T05:11:13.447Z,91.10
2019-06-01T05:13:43.012Z,90.90
2019-06-01T05:16:13.421Z,91.00
2019-06-01T05:18:43.661Z,88.70
2019-06-01T05:21:13.132Z,83.60
2019-06-01T05:23:42.837Z,79.50
2019-06-01T05:26:13.153Z,74.00
2019-06-01T05:28:42.870Z,71.20
2019-06-01T05:31:14.953Z,68.10
2019-06-01T05:33:43.503Z,67.30
2019-06-01T05:36:14.162Z,65.30
2019-06-01T05:38:43.756Z,62.20
2019-06-01T05:41:13.648Z,58.00
2019-06-01T05:43:44.322Z,56.00
2019-06-01T05:46:14.066Z,53.20
2019-06-01T05:48:43.583Z,50.40
2019-06-01T05:51:15.566Z,47.60
2019-06-01T05:53:44.227Z,45.50
2019-06-01T05:56:14.781Z,45.50
2019-06-01T05:58:44.324Z,44.30
2019-06-01T06:01:14.686Z,42.60
2019-06-01T06:03:44.250Z,42.30
2019-06-01T06:06:13.857Z,41.10
2019-06-01T06:08:43.312Z,39.90
2019-06-01T06:11:12.939Z,37.60
2019-06-01T06:13:42.417Z,37.00
2019-06-01T06:16:11.852Z,38.00
2019-06-01T06:18:41.293Z,36.90
2019-06-01T06:21:11.887Z,35.10
2019-06-01T06:23:41.362Z,35.30
2019-06-01T06:26:10.819Z,34.90
2019-06-01T06:28:40.261Z,34.20
2019-06-01T06:31:09.729Z,33.70
2019-06-01T06:33:39.165Z,34.80
2019-06-01T06:36:08.659Z,34.30
2019-06-01T06:38:38.103Z,32.80
2019-06-01T06:41:07.541Z,32.30
2019-06-01T06:43:36.985Z,34.20
2019-06-01T06:46:06.537Z,36.20
2019-06-01T06:48:36.019Z,36.70
2019-06-01T06:51:06.930Z,35.20
2019-06-01T06:53:36.391Z,33.70
2019-06-01T06:56:05.936Z,33.00
2019-06-01T06:58:35.407Z,32.60
2019-06-01T07:01:05.654Z,32.80
2019-06-01T07:03:35.093Z,32.00
2019-06-01T07:06:05.069Z,31.50
2019-06-01T07:08:34.550Z,31.40
2019-06-01T07:11:04.006Z,30.90
2019-06-01T07:13:33.456Z,31.00
2019-06-01T07:16:03.969Z,30.10
2019-06-01T07:18:33.529Z,29.10
2019-06-01T07:21:02.970Z,28.70
2019-06-01T07:23:32.445Z,28.10
2019-06-01T07:26:01.879Z,29.30
2019-06-01T07:28:32.371Z,29.20
2019-06-01T07:31:01.995Z,28.40
2019-06-01T07:33:32.639Z,28.30
2019-06-01T07:36:02.218Z,28.00
2019-06-01T07:38:33.157Z,28.30
2019-06-01T07:41:02.815Z,27.60
2019-06-01T07:43:33.238Z,27.00
2019-06-01T07:46:02.805Z,27.80
2019-06-01T07:48:33.429Z,28.10
2019-06-01T07:51:02.971Z,27.90
2019-06-01T07:53:32.423Z,28.50
2019-06-01T07:56:01.894Z,28.70
2019-06-01T07:58:31.390Z,29.40
2019-06-01T08:01:02.105Z,28.90
2019-06-01T08:03:34.672Z,28.70
2019-06-01T08:06:02.722Z,28.50
2019-06-01T08:08:32.214Z,28.40
2019-06-01T08:11:01.635Z,28.70
2019-06-01T08:13:33.945Z,29.90
2019-06-01T08:16:02.271Z,29.70
2019-06-01T08:18:32.241Z,30.50
2019-06-01T08:21:01.800Z,31.30
2019-06-01T08:23:32.500Z,32.10
2019-06-01T08:26:02.118Z,32.70
2019-06-01T08:28:32.664Z,33.20
2019-06-01T08:31:02.268Z,33.40
2019-06-01T08:33:33.572Z,33.80
2019-06-01T08:36:02.907Z,34.00
2019-06-01T08:38:33.675Z,33.10
2019-06-01T08:41:03.330Z,30.90
2019-06-01T08:43:33.941Z,30.20
2019-06-01T08:46:03.561Z,29.70
2019-06-01T08:48:34.077Z,29.80
2019-06-01T08:51:03.681Z,29.60
2019-06-01T08:53:34.243Z,29.10
2019-06-01T08:56:03.826Z,29.50
2019-06-01T08:58:34.583Z,29.40
2019-06-01T09:01:04.403Z,30.00
2019-06-01T09:03:35.203Z,30.50
2019-06-01T09:06:05.251Z,31.90
2019-06-01T09:08:35.173Z,32.50
2019-06-01T09:11:04.894Z,33.70
2019-06-01T09:13:35.492Z,34.90
2019-06-01T09:16:05.979Z,35.60
2019-06-01T09:18:35.880Z,36.60
2019-06-01T09:21:05.584Z,38.00
2019-06-01T09:23:36.985Z,38.60
2019-06-01T09:26:06.167Z,40.00
2019-06-01T09:28:36.192Z,40.00
2019-06-01T09:31:05.836Z,41.40
2019-06-01T09:33:36.853Z,42.00
2019-06-01T09:36:06.499Z,42.10
2019-06-01T09:38:36.104Z,42.50
2019-06-01T09:41:05.836Z,43.70
2019-06-01T09:43:35.273Z,44.80
2019-06-01T09:46:04.903Z,44.90
2019-06-01T09:48:35.634Z,46.00
2019-06-01T09:51:05.225Z,45.40
2019-06-01T09:53:35.974Z,46.80
2019-06-01T09:56:05.887Z,47.50
2019-06-01T09:58:36.772Z,47.80
2019-06-01T10:01:06.420Z,47.90
2019-06-01T10:03:36.480Z,48.80
2019-06-01T10:06:06.245Z,49.30
2019-06-01T10:08:36.154Z,50.00
2019-06-01T10:11:05.723Z,49.70
2019-06-01T10:13:36.390Z,50.30
2019-06-01T10:16:05.994Z,50.10
2019-06-01T10:18:36.933Z,50.10
2019-06-01T10:21:06.479Z,49.40
2019-06-01T10:23:36.509Z,49.40
2019-06-01T10:26:06.223Z,49.60
2019-06-01T10:28:35.811Z,50.70
2019-06-01T10:31:05.291Z,50.60
2019-06-01T10:33:34.927Z,51.60
2019-06-01T10:36:19.317Z,52.30
2019-06-01T10:38:35.680Z,52.50
2019-06-01T10:41:05.131Z,52.50
2019-06-01T10:43:35.597Z,52.30
2019-06-01T10:46:05.402Z,52.10
2019-06-01T10:48:36.006Z,52.10
2019-06-01T10:51:05.801Z,52.50
2019-06-01T10:53:36.358Z,53.10
2019-06-01T10:56:05.874Z,52.50
2019-06-01T10:58:52.466Z,52.70
2019-06-01T11:01:06.510Z,53.00
2019-06-01T11:03:36.692Z,53.70
2019-06-01T11:06:06.201Z,53.60
2019-06-01T11:08:37.049Z,54.10
2019-06-01T11:11:06.712Z,54.50
2019-06-01T11:13:37.066Z,53.80
2019-06-01T11:16:06.589Z,53.80
2019-06-01T11:18:37.359Z,53.40
2019-06-01T11:21:07.128Z,53.90
2019-06-01T11:23:37.450Z,54.00
2019-06-01T11:26:06.986Z,54.30
2019-06-01T11:28:38.112Z,53.60
2019-06-01T11:31:07.744Z,53.80
2019-06-01T11:33:38.201Z,52.80
2019-06-01T11:36:07.720Z,53.30
2019-06-01T11:38:38.368Z,52.60
2019-06-01T11:41:08.354Z,53.40
2019-06-01T11:43:38.622Z,53.00
2019-06-01T11:46:08.133Z,53.40
2019-06-01T11:48:39.087Z,53.60
2019-06-01T11:51:08.621Z,53.70
2019-06-01T11:53:39.877Z,53.10
2019-06-01T11:56:09.223Z,52.40
2019-06-01T11:58:39.249Z,53.40
2019-06-01T12:01:08.810Z,52.70
2019-06-01T12:03:39.597Z,52.20
2019-06-01T12:06:09.256Z,52.70
2019-06-01T12:08:39.886Z,53.40
2019-06-01T12:11:09.445Z,53.10
2019-06-01T12:13:40.052Z,53.30
2019-06-01T12:16:09.594Z,52.90
2019-06-01T12:18:39.037Z,53.90
2019-06-01T12:21:09.604Z,54.10
2019-06-01T12:23:39.094Z,53.70
2019-06-01T12:26:08.525Z,53.50
2019-06-01T12:28:39.394Z,53.40
2019-06-01T12:31:09.006Z,55.30
2019-06-01T12:33:39.800Z,55.30
2019-06-01T12:36:09.287Z,55.00
2019-06-01T12:38:40.365Z,54.90
2019-06-01T12:41:09.799Z,55.60
2019-06-01T12:43:39.484Z,55.90
2019-06-01T12:46:08.912Z,56.90
2019-06-01T12:48:38.379Z,56.40
2019-06-01T12:51:07.891Z,56.30
2019-06-01T12:53:37.357Z,57.10
2019-06-01T12:56:06.890Z,56.40
2019-06-01T12:58:36.386Z,56.30
2019-06-01T13:01:05.858Z,56.90
2019-06-01T13:03:35.281Z,56.20
2019-06-01T13:06:04.789Z,56.60
2019-06-01T13:08:34.194Z,56.10
2019-06-01T13:11:03.659Z,56.30
2019-06-01T13:13:33.088Z,56.30
2019-06-01T13:16:02.528Z,56.00
2019-06-01T13:18:31.997Z,55.80
2019-06-01T13:21:01.467Z,55.40
2019-06-01T13:23:30.894Z,56.00
2019-06-01T13:26:00.349Z,56.00
2019-06-01T13:28:37.926Z,56.30
2019-06-01T13:31:01.052Z,55.80
2019-06-01T13:33:30.501Z,56.10
2019-06-01T13:35:59.958Z,56.90
2019-06-01T13:38:29.435Z,56.80
2019-06-01T13:40:58.904Z,56.80
2019-06-01T13:43:28.384Z,57.60
2019-06-01T13:45:57.857Z,57.90
2019-06-01T13:48:27.305Z,57.80
2019-06-01T13:50:56.797Z,57.80
2019-06-01T13:53:26.273Z,58.40
2019-06-01T13:55:55.700Z,59.00
2019-06-01T13:58:25.171Z,58.30
2019-06-01T14:00:56.561Z,59.00
2019-06-01T14:03:26.018Z,59.10
2019-06-01T14:05:55.452Z,58.80
2019-06-01T14:08:28.926Z,58.80
2019-06-01T14:10:56.129Z,59.00
2019-06-01T14:13:25.597Z,59.20
2019-06-01T14:15:56.417Z,59.50
2019-06-01T14:18:25.781Z,59.60
2019-06-01T14:20:56.923Z,59.20
2019-06-01T14:23:26.387Z,59.30
2019-06-01T14:25:56.405Z,59.30
2019-06-01T14:28:25.933Z,58.70
2019-06-01T14:30:56.667Z,59.10
2019-06-01T14:33:26.142Z,58.80
2019-06-01T14:35:56.645Z,58.80
2019-06-01T14:38:26.183Z,58.70
2019-06-01T14:41:01.655Z,58.80
2019-06-01T14:43:31.126Z,59.20
2019-06-01T14:46:00.557Z,58.40
2019-06-01T14:48:30.039Z,58.20
2019-06-01T14:51:01.151Z,58.70
2019-06-01T14:53:30.595Z,58.30
2019-06-01T14:56:00.056Z,58.00
2019-06-01T14:58:29.523Z,58.50
2019-06-01T15:00:58.973Z,58.60
2019-06-01T15:03:28.438Z,58.50
2019-06-01T15:05:58.607Z,58.70
2019-06-01T15:08:28.221Z,58.40
2019-06-01T15:10:58.904Z,58.30
2019-06-01T15:13:28.343Z,58.40
2019-06-01T15:15:57.863Z,57.60
2019-06-01T15:18:27.316Z,57.50
2019-06-01T15:21:02.893Z,58.00
2019-06-01T15:23:32.347Z,57.70
2019-06-01T15:26:02.895Z,57.40
2019-06-01T15:28:32.498Z,57.60
2019-06-01T15:33:36.290Z,57.10
2019-06-01T15:36:05.910Z,57.20
2019-06-01T15:38:36.376Z,57.20
2019-06-01T15:41:05.949Z,56.10
2019-06-01T15:43:35.486Z,56.00
2019-06-01T15:46:04.939Z,55.80
2019-06-01T15:48:34.371Z,55.20
2019-06-01T15:51:07.159Z,54.50
2019-06-01T15:53:35.010Z,54.40
2019-06-01T15:56:04.554Z,54.40
2019-06-01T15:58:34.072Z,54.00
2019-06-01T16:01:03.520Z,54.20
2019-06-01T16:03:34.215Z,53.50
2019-06-01T16:06:04.176Z,53.30
2019-06-01T16:08:33.618Z,51.80
2019-06-01T16:11:05.966Z,50.70
2019-06-01T16:13:34.275Z,48.90
2019-06-01T16:16:05.208Z,48.50
2019-06-01T16:18:34.816Z,47.90
2019-06-01T16:21:04.382Z,48.50
2019-06-01T16:23:48.716Z,48.40
2019-06-01T16:26:15.433Z,48.80
2019-06-01T16:28:36.219Z,48.70
2019-06-01T16:31:05.653Z,48.50
2019-06-01T16:33:35.112Z,48.50
2019-06-01T16:36:05.621Z,48.50
2019-06-01T16:38:35.168Z,48.50
2019-06-01T16:41:05.548Z,48.30
2019-06-01T16:43:35.015Z,48.90
2019-06-01T16:46:05.920Z,48.30
2019-06-01T16:48:35.479Z,48.20
2019-06-01T16:51:05.894Z,48.20
2019-06-01T16:53:35.449Z,47.30
2019-06-01T16:56:04.907Z,46.50
2019-06-01T16:58:34.365Z,46.50
2019-06-01T17:01:04.997Z,46.70
2019-06-01T17:03:34.749Z,46.90
2019-06-01T17:06:04.822Z,46.50
2019-06-01T17:08:34.346Z,46.40
2019-06-01T17:11:04.840Z,45.30
2019-06-01T17:13:34.364Z,45.70
2019-06-01T17:16:05.070Z,45.80
2019-06-01T17:18:34.728Z,46.30
2019-06-01T17:21:05.504Z,46.50
2019-06-01T17:23:35.011Z,46.10
2019-06-01T17:26:04.910Z,45.80
2019-06-01T17:28:35.787Z,46.50
2019-06-01T17:31:06.410Z,46.40
2019-06-01T17:33:35.897Z,46.60
2019-06-01T17:36:06.737Z,46.40
2019-06-01T17:38:36.391Z,47.40
2019-06-01T17:41:06.372Z,47.70
2019-06-01T17:43:35.925Z,48.10
2019-06-01T17:46:05.440Z,48.50
2019-06-01T17:48:34.887Z,49.30
2019-06-01T17:51:04.810Z,49.60
2019-06-01T17:53:34.231Z,50.50
2019-06-01T17:56:03.919Z,51.40
2019-06-01T17:58:33.661Z,52.80
2019-06-01T18:01:04.267Z,52.50
2019-06-01T18:03:34.068Z,53.40
2019-06-01T18:06:03.740Z,54.10
2019-06-01T18:08:33.257Z,52.50
2019-06-01T18:11:03.783Z,52.50
2019-06-01T18:13:33.421Z,54.20
2019-06-01T18:16:03.383Z,54.30
2019-06-01T18:18:34.087Z,54.70
2019-06-01T18:21:04.145Z,55.00
2019-06-01T18:23:33.650Z,57.10
2019-06-01T18:26:04.969Z,59.10
2019-06-01T18:28:34.306Z,59.20
2019-06-01T18:31:04.578Z,60.00
2019-06-01T18:33:34.062Z,58.90
2019-06-01T18:36:03.690Z,59.40
2019-06-01T18:38:33.169Z,59.70
2019-06-01T18:41:10.768Z,60.80
2019-06-01T18:43:36.799Z,61.00
2019-06-01T18:46:06.388Z,61.00
2019-06-01T18:48:35.902Z,62.60
2019-06-01T18:51:06.054Z,62.80
2019-06-01T18:53:35.550Z,62.80
2019-06-01T18:56:06.031Z,63.80
2019-06-01T18:58:35.587Z,63.70
2019-06-01T19:01:06.372Z,63.90
2019-06-01T19:03:35.937Z,65.00
2019-06-01T19:06:05.459Z,64.90
2019-06-01T19:08:34.965Z,65.30
2019-06-01T19:11:05.733Z,67.40
2019-06-01T19:13:35.248Z,69.50
2019-06-01T19:16:05.782Z,73.00
2019-06-01T19:18:35.575Z,76.10
2019-06-01T19:21:06.328Z,78.30
2019-06-01T19:23:36.226Z,80.10
2019-06-01T19:26:10.157Z,81.30
2019-06-01T19:28:37.063Z,82.00
2019-06-01T19:31:06.859Z,82.40
2019-06-01T19:33:36.403Z,82.40
2019-06-01T19:36:06.918Z,82.70
2019-06-01T19:38:38.162Z,82.90
2019-06-01T19:41:07.644Z,83.50
2019-06-01T19:43:37.083Z,83.70
2019-06-01T19:46:07.617Z,83.80
2019-06-01T19:48:37.225Z,83.80
2019-06-01T19:51:06.752Z,83.40
2019-06-01T19:53:36.216Z,84.00
2019-06-01T19:56:05.744Z,84.40
2019-06-01T19:58:35.224Z,85.30
2019-06-01T20:01:05.030Z,86.20
2019-06-01T20:03:34.495Z,86.40
2019-06-01T20:06:04.029Z,86.50
2019-06-01T20:08:33.469Z,86.70
2019-06-01T20:11:02.917Z,87.20
2019-06-01T20:13:32.383Z,88.00
2019-06-01T20:16:01.825Z,87.70
2019-06-01T20:18:31.312Z,88.20
2019-06-01T20:21:01.678Z,88.20
2019-06-01T20:23:31.142Z,88.50
2019-06-01T20:26:00.596Z,88.80
2019-06-01T20:28:30.049Z,89.10
2019-06-01T20:31:01.566Z,89.00
2019-06-01T20:33:35.108Z,88.80
2019-06-01T20:36:04.653Z,89.20
2019-06-01T20:38:37.120Z,89.20
2019-06-01T20:41:06.569Z,89.50
2019-06-01T20:43:36.021Z,89.70
2019-06-01T20:46:05.735Z,89.60
2019-06-01T20:48:35.195Z,90.00
2019-06-01T20:51:04.758Z,90.10
2019-06-01T20:53:36.670Z,90.30
2019-06-01T20:56:06.113Z,90.50
2019-06-01T20:58:35.626Z,90.80
2019-06-01T21:01:05.239Z,90.90
2019-06-01T21:03:34.718Z,91.00
2019-06-01T21:06:04.168Z,91.00
2019-06-01T21:08:33.638Z,91.10
2019-06-01T21:11:03.102Z,91.20
2019-06-01T21:13:32.570Z,91.40
2019-06-01T21:16:02.007Z,91.50
2019-06-01T21:18:31.475Z,91.40
2019-06-01T21:21:00.928Z,91.30
2019-06-01T21:23:30.387Z,91.10
2019-06-01T21:25:59.903Z,91.10
2019-06-01T21:28:29.341Z,91.00
2019-06-01T21:31:03.255Z,90.90
2019-06-01T21:33:32.717Z,90.90
2019-06-01T21:36:02.165Z,91.00
2019-06-01T21:38:31.617Z,90.80
2019-06-01T21:41:02.726Z,90.80
2019-06-01T21:43:35.366Z,90.70
2019-06-01T21:46:03.401Z,90.60
2019-06-01T21:48:32.851Z,90.50
2019-06-01T21:51:02.802Z,90.40
2019-06-01T21:53:32.654Z,90.40
2019-06-01T21:56:02.118Z,90.40
2019-06-01T21:58:31.597Z,90.20
2019-06-01T22:01:02.840Z,90.20
2019-06-01T22:03:32.265Z,90.10
2019-06-01T22:06:01.725Z,90.00
2019-06-01T22:08:31.154Z,90.10
2019-06-01T22:11:00.611Z,90.00
2019-06-01T22:13:30.057Z,90.20
2019-06-01T22:15:59.500Z,90.20
2019-06-01T22:18:28.969Z,90.30
2019-06-01T22:21:01.317Z,90.30
2019-06-01T22:23:30.774Z,90.30
2019-06-01T22:26:00.279Z,90.20
2019-06-01T22:28:29.752Z,90.30
2019-06-01T22:31:03.490Z,90.30
2019-06-01T22:33:32.968Z,90.50
2019-06-01T22:36:02.409Z,90.20
2019-06-01T22:38:31.852Z,90.20
2019-06-01T22:41:01.312Z,90.10
2019-06-01T22:43:45.183Z,90.10
2019-06-01T22:46:01.958Z,90.10
2019-06-01T22:48:31.428Z,90.10
2019-06-01T22:51:03.410Z,90.20
2019-06-01T22:53:32.862Z,90.30
2019-06-01T22:56:02.321Z,90.30
2019-06-01T22:58:31.767Z,90.30
2019-06-01T23:01:01.223Z,90.40
2019-06-01T23:03:30.685Z,90.40
2019-06-01T23:06:00.237Z,90.50
2019-06-01T23:08:29.702Z,90.50
2019-06-01T23:10:59.174Z,90.60
2019-06-01T23:13:28.615Z,90.60
2019-06-01T23:15:58.080Z,90.60
2019-06-01T23:18:27.927Z,90.60
2019-06-01T23:20:59.685Z,90.70
2019-06-01T23:23:30.187Z,90.70
2019-06-01T23:25:59.706Z,90.80
2019-06-01T23:28:30.300Z,91.00
2019-06-01T23:31:01.074Z,91.10
2019-06-01T23:33:30.987Z,91.00
2019-06-01T23:36:00.445Z,91.00
2019-06-01T23:38:30.812Z,91.00
2019-06-01T23:41:03.341Z,91.00
2019-06-01T23:43:33.051Z,91.00
2019-06-01T23:46:02.506Z,91.10
2019-06-01T23:48:31.946Z,91.00
2019-06-01T23:51:04.095Z,91.00
2019-06-01T23:53:33.866Z,90.90
2019-06-01T23:56:03.396Z,90.70
2019-06-01T23:58:32.863Z,90.70
